sensor_id;sensor_type;location;lat;lon;timestamp;P1;durP1;ratioP1;P2;durP2;ratioP2
13683;SDS011;6914;53.552;9.908;2023-03-14T00:01:23;4.87;;;3.13;;
13683;SDS011;6914;53.552;9.908;2023-03-14T00:03:50;3.93;;;3.40;;
13683;SDS011;6914;53.552;9.908;2023-03-14T00:06:17;4.07;;;3.67;;
13683;SDS011;6914;53.552;9.908;2023-03-14T00:08:45;3.40;;;3.13;;
13683;SDS011;6914;53.552;9.908;2023-03-14T00:11:13;6.93;;;3.47;;
13683;SDS011;6914;53.552;9.908;2023-03-14T00:13:43;11.10;;;3.60;;
13683;SDS011;6914;53.552;9.908;2023-03-14T00:16:12;3.87;;;3.60;;
13683;SDS011;6914;53.552;9.908;2023-03-14T00:18:39;8.27;;;2.90;;
13683;SDS011;6914;53.552;9.908;2023-03-14T00:21:06;6.53;;;3.27;;
13683;SDS011;6914;53.552;9.908;2023-03-14T00:23:39;19.73;;;3.20;;
13683;SDS011;6914;53.552;9.908;2023-03-14T00:26:09;10.03;;;3.70;;
13683;SDS011;6914;53.552;9.908;2023-03-14T00:28:38;19.83;;;3.30;;
13683;SDS011;6914;53.552;9.908;2023-03-14T00:31:08;7.03;;;3.30;;
13683;SDS011;6914;53.552;9.908;2023-03-14T00:33:41;10.50;;;2.73;;
13683;SDS011;6914;53.552;9.908;2023-03-14T00:36:11;9.47;;;3.07;;
13683;SDS011;6914;53.552;9.908;2023-03-14T00:38:41;9.03;;;3.30;;
13683;SDS011;6914;53.552;9.908;2023-03-14T00:41:11;7.00;;;3.07;;
13683;SDS011;6914;53.552;9.908;2023-03-14T00:43:43;6.17;;;3.50;;
13683;SDS011;6914;53.552;9.908;2023-03-14T00:46:14;6.90;;;3.57;;
13683;SDS011;6914;53.552;9.908;2023-03-14T00:48:41;9.97;;;3.53;;
13683;SDS011;6914;53.552;9.908;2023-03-14T00:51:08;10.07;;;3.53;;
13683;SDS011;6914;53.552;9.908;2023-03-14T00:53:40;15.33;;;4.47;;
13683;SDS011;6914;53.552;9.908;2023-03-14T00:56:08;4.33;;;2.93;;
13683;SDS011;6914;53.552;9.908;2023-03-14T00:58:39;8.60;;;3.40;;
13683;SDS011;6914;53.552;9.908;2023-03-14T01:01:06;7.23;;;3.03;;
13683;SDS011;6914;53.552;9.908;2023-03-14T01:03:37;12.73;;;3.07;;
13683;SDS011;6914;53.552;9.908;2023-03-14T01:06:08;19.57;;;4.17;;
13683;SDS011;6914;53.552;9.908;2023-03-14T01:08:39;7.27;;;3.07;;
13683;SDS011;6914;53.552;9.908;2023-03-14T01:11:07;7.50;;;3.60;;
13683;SDS011;6914;53.552;9.908;2023-03-14T01:13:39;6.00;;;2.90;;
13683;SDS011;6914;53.552;9.908;2023-03-14T01:16:07;7.83;;;3.73;;
13683;SDS011;6914;53.552;9.908;2023-03-14T01:18:39;7.07;;;3.30;;
13683;SDS011;6914;53.552;9.908;2023-03-14T01:21:13;17.70;;;3.80;;
13683;SDS011;6914;53.552;9.908;2023-03-14T01:23:43;8.27;;;3.70;;
13683;SDS011;6914;53.552;9.908;2023-03-14T01:26:11;4.27;;;2.43;;
13683;SDS011;6914;53.552;9.908;2023-03-14T01:28:41;5.57;;;3.50;;
13683;SDS011;6914;53.552;9.908;2023-03-14T01:31:10;6.13;;;3.17;;
13683;SDS011;6914;53.552;9.908;2023-03-14T01:33:43;6.10;;;2.50;;
13683;SDS011;6914;53.552;9.908;2023-03-14T01:36:11;4.83;;;3.10;;
13683;SDS011;6914;53.552;9.908;2023-03-14T01:38:40;3.87;;;2.90;;
13683;SDS011;6914;53.552;9.908;2023-03-14T01:41:08;8.77;;;3.47;;
13683;SDS011;6914;53.552;9.908;2023-03-14T01:43:41;9.77;;;3.43;;
13683;SDS011;6914;53.552;9.908;2023-03-14T01:48:59;6.17;;;2.97;;
13683;SDS011;6914;53.552;9.908;2023-03-14T01:51:46;8.80;;;3.50;;
13683;SDS011;6914;53.552;9.908;2023-03-14T01:54:18;13.50;;;3.90;;
13683;SDS011;6914;53.552;9.908;2023-03-14T01:56:50;6.60;;;3.27;;
13683;SDS011;6914;53.552;9.908;2023-03-14T01:59:22;11.53;;;3.80;;
13683;SDS011;6914;53.552;9.908;2023-03-14T02:01:50;4.53;;;2.93;;
13683;SDS011;6914;53.552;9.908;2023-03-14T02:04:20;11.63;;;4.00;;
13683;SDS011;6914;53.552;9.908;2023-03-14T02:06:52;14.23;;;3.70;;
13683;SDS011;6914;53.552;9.908;2023-03-14T02:09:23;11.00;;;4.07;;
13683;SDS011;6914;53.552;9.908;2023-03-14T02:11:50;11.27;;;4.00;;
13683;SDS011;6914;53.552;9.908;2023-03-14T02:14:23;8.57;;;3.70;;
13683;SDS011;6914;53.552;9.908;2023-03-14T02:16:55;6.03;;;3.50;;
13683;SDS011;6914;53.552;9.908;2023-03-14T02:19:26;8.07;;;3.83;;
13683;SDS011;6914;53.552;9.908;2023-03-14T02:22:04;8.23;;;3.40;;
13683;SDS011;6914;53.552;9.908;2023-03-14T02:24:34;8.83;;;4.03;;
13683;SDS011;6914;53.552;9.908;2023-03-14T02:27:12;9.40;;;3.70;;
13683;SDS011;6914;53.552;9.908;2023-03-14T02:29:45;8.40;;;3.50;;
13683;SDS011;6914;53.552;9.908;2023-03-14T02:32:17;10.77;;;3.43;;
13683;SDS011;6914;53.552;9.908;2023-03-14T02:34:45;6.07;;;3.23;;
13683;SDS011;6914;53.552;9.908;2023-03-14T02:37:15;12.73;;;4.30;;
13683;SDS011;6914;53.552;9.908;2023-03-14T02:39:45;11.90;;;3.53;;
13683;SDS011;6914;53.552;9.908;2023-03-14T02:42:17;4.70;;;3.80;;
13683;SDS011;6914;53.552;9.908;2023-03-14T02:44:51;10.60;;;3.90;;
13683;SDS011;6914;53.552;9.908;2023-03-14T02:47:21;10.07;;;4.33;;
13683;SDS011;6914;53.552;9.908;2023-03-14T02:49:53;7.17;;;3.90;;
13683;SDS011;6914;53.552;9.908;2023-03-14T02:52:27;12.90;;;3.93;;
13683;SDS011;6914;53.552;9.908;2023-03-14T02:54:54;10.87;;;4.27;;
13683;SDS011;6914;53.552;9.908;2023-03-14T02:57:22;7.87;;;4.40;;
13683;SDS011;6914;53.552;9.908;2023-03-14T02:59:49;10.73;;;4.07;;
13683;SDS011;6914;53.552;9.908;2023-03-14T03:02:16;9.13;;;4.30;;
13683;SDS011;6914;53.552;9.908;2023-03-14T03:04:43;7.03;;;3.47;;
13683;SDS011;6914;53.552;9.908;2023-03-14T03:07:10;8.70;;;4.43;;
13683;SDS011;6914;53.552;9.908;2023-03-14T03:09:38;4.63;;;3.70;;
13683;SDS011;6914;53.552;9.908;2023-03-14T03:12:05;6.77;;;4.27;;
13683;SDS011;6914;53.552;9.908;2023-03-14T03:14:33;16.50;;;4.43;;
13683;SDS011;6914;53.552;9.908;2023-03-14T03:17:02;8.67;;;4.23;;
13683;SDS011;6914;53.552;9.908;2023-03-14T03:19:30;8.03;;;3.93;;
13683;SDS011;6914;53.552;9.908;2023-03-14T03:21:57;9.70;;;4.27;;
13683;SDS011;6914;53.552;9.908;2023-03-14T03:24:24;6.80;;;3.87;;
13683;SDS011;6914;53.552;9.908;2023-03-14T03:26:51;5.43;;;3.90;;
13683;SDS011;6914;53.552;9.908;2023-03-14T03:29:19;5.50;;;3.77;;
13683;SDS011;6914;53.552;9.908;2023-03-14T03:31:47;6.23;;;3.80;;
13683;SDS011;6914;53.552;9.908;2023-03-14T03:34:15;7.07;;;3.60;;
13683;SDS011;6914;53.552;9.908;2023-03-14T03:36:42;11.77;;;3.50;;
13683;SDS011;6914;53.552;9.908;2023-03-14T03:39:09;8.43;;;3.50;;
13683;SDS011;6914;53.552;9.908;2023-03-14T03:41:37;5.37;;;3.27;;
13683;SDS011;6914;53.552;9.908;2023-03-14T03:44:03;9.53;;;3.17;;
13683;SDS011;6914;53.552;9.908;2023-03-14T03:46:31;13.50;;;4.13;;
13683;SDS011;6914;53.552;9.908;2023-03-14T03:48:59;9.13;;;3.67;;
13683;SDS011;6914;53.552;9.908;2023-03-14T03:51:26;8.93;;;4.57;;
13683;SDS011;6914;53.552;9.908;2023-03-14T03:53:53;6.70;;;3.67;;
13683;SDS011;6914;53.552;9.908;2023-03-14T03:56:21;9.33;;;4.50;;
13683;SDS011;6914;53.552;9.908;2023-03-14T03:58:48;6.13;;;3.60;;
13683;SDS011;6914;53.552;9.908;2023-03-14T04:01:16;12.53;;;3.80;;
13683;SDS011;6914;53.552;9.908;2023-03-14T04:03:43;5.00;;;3.60;;
13683;SDS011;6914;53.552;9.908;2023-03-14T04:06:16;15.73;;;4.10;;
13683;SDS011;6914;53.552;9.908;2023-03-14T04:08:43;8.20;;;3.83;;
13683;SDS011;6914;53.552;9.908;2023-03-14T04:11:10;9.63;;;3.43;;
13683;SDS011;6914;53.552;9.908;2023-03-14T04:13:37;10.03;;;3.70;;
13683;SDS011;6914;53.552;9.908;2023-03-14T04:16:08;15.93;;;4.70;;
13683;SDS011;6914;53.552;9.908;2023-03-14T04:18:43;7.13;;;3.90;;
13683;SDS011;6914;53.552;9.908;2023-03-14T04:21:12;12.40;;;4.17;;
13683;SDS011;6914;53.552;9.908;2023-03-14T04:23:42;15.43;;;4.50;;
13683;SDS011;6914;53.552;9.908;2023-03-14T04:26:09;14.70;;;4.17;;
13683;SDS011;6914;53.552;9.908;2023-03-14T04:28:36;8.33;;;3.80;;
13683;SDS011;6914;53.552;9.908;2023-03-14T04:31:06;9.23;;;3.60;;
13683;SDS011;6914;53.552;9.908;2023-03-14T04:33:33;6.43;;;4.07;;
13683;SDS011;6914;53.552;9.908;2023-03-14T04:36:02;6.47;;;4.03;;
13683;SDS011;6914;53.552;9.908;2023-03-14T04:38:33;5.50;;;4.30;;
13683;SDS011;6914;53.552;9.908;2023-03-14T04:41:00;14.00;;;4.10;;
13683;SDS011;6914;53.552;9.908;2023-03-14T04:43:28;10.33;;;2.97;;
13683;SDS011;6914;53.552;9.908;2023-03-14T04:45:55;8.90;;;3.90;;
13683;SDS011;6914;53.552;9.908;2023-03-14T04:48:24;7.30;;;4.40;;
13683;SDS011;6914;53.552;9.908;2023-03-14T04:50:52;3.97;;;3.60;;
13683;SDS011;6914;53.552;9.908;2023-03-14T04:53:19;13.27;;;4.63;;
13683;SDS011;6914;53.552;9.908;2023-03-14T04:55:49;4.30;;;3.90;;
13683;SDS011;6914;53.552;9.908;2023-03-14T04:58:17;18.43;;;3.70;;
13683;SDS011;6914;53.552;9.908;2023-03-14T05:00:45;5.27;;;2.90;;
13683;SDS011;6914;53.552;9.908;2023-03-14T05:03:14;4.83;;;3.90;;
13683;SDS011;6914;53.552;9.908;2023-03-14T05:05:44;3.30;;;2.97;;
13683;SDS011;6914;53.552;9.908;2023-03-14T05:08:11;5.87;;;2.23;;
13683;SDS011;6914;53.552;9.908;2023-03-14T05:10:38;6.53;;;3.60;;
13683;SDS011;6914;53.552;9.908;2023-03-14T05:13:06;2.10;;;1.73;;
13683;SDS011;6914;53.552;9.908;2023-03-14T05:15:33;5.23;;;2.40;;
13683;SDS011;6914;53.552;9.908;2023-03-14T05:18:00;2.10;;;2.00;;
13683;SDS011;6914;53.552;9.908;2023-03-14T05:20:28;5.03;;;3.20;;
13683;SDS011;6914;53.552;9.908;2023-03-14T05:22:56;8.73;;;3.10;;
13683;SDS011;6914;53.552;9.908;2023-03-14T05:25:23;7.33;;;2.67;;
13683;SDS011;6914;53.552;9.908;2023-03-14T05:27:53;2.80;;;2.60;;
13683;SDS011;6914;53.552;9.908;2023-03-14T05:30:21;9.13;;;3.60;;
13683;SDS011;6914;53.552;9.908;2023-03-14T05:32:48;3.53;;;3.30;;
13683;SDS011;6914;53.552;9.908;2023-03-14T05:35:24;5.13;;;3.20;;
13683;SDS011;6914;53.552;9.908;2023-03-14T05:37:51;4.23;;;3.83;;
13683;SDS011;6914;53.552;9.908;2023-03-14T05:40:19;3.57;;;3.27;;
13683;SDS011;6914;53.552;9.908;2023-03-14T05:42:46;9.03;;;4.73;;
13683;SDS011;6914;53.552;9.908;2023-03-14T05:45:30;4.40;;;3.50;;
13683;SDS011;6914;53.552;9.908;2023-03-14T05:47:59;5.87;;;4.53;;
13683;SDS011;6914;53.552;9.908;2023-03-14T05:50:25;8.60;;;4.53;;
13683;SDS011;6914;53.552;9.908;2023-03-14T05:52:52;5.83;;;5.03;;
13683;SDS011;6914;53.552;9.908;2023-03-14T05:55:20;8.43;;;4.50;;
13683;SDS011;6914;53.552;9.908;2023-03-14T05:57:46;9.97;;;6.17;;
13683;SDS011;6914;53.552;9.908;2023-03-14T06:00:14;16.43;;;5.83;;
13683;SDS011;6914;53.552;9.908;2023-03-14T06:02:45;6.37;;;5.97;;
13683;SDS011;6914;53.552;9.908;2023-03-14T06:05:27;13.57;;;6.67;;
13683;SDS011;6914;53.552;9.908;2023-03-14T06:08:00;12.33;;;6.90;;
13683;SDS011;6914;53.552;9.908;2023-03-14T06:10:26;11.53;;;6.90;;
13683;SDS011;6914;53.552;9.908;2023-03-14T06:12:53;11.87;;;7.37;;
13683;SDS011;6914;53.552;9.908;2023-03-14T06:15:20;13.40;;;6.33;;
13683;SDS011;6914;53.552;9.908;2023-03-14T06:17:48;15.63;;;6.43;;
13683;SDS011;6914;53.552;9.908;2023-03-14T06:20:15;16.13;;;5.37;;
13683;SDS011;6914;53.552;9.908;2023-03-14T06:22:45;16.97;;;5.50;;
13683;SDS011;6914;53.552;9.908;2023-03-14T06:25:12;14.07;;;5.17;;
13683;SDS011;6914;53.552;9.908;2023-03-14T06:27:39;20.73;;;5.43;;
13683;SDS011;6914;53.552;9.908;2023-03-14T06:30:06;10.97;;;5.30;;
13683;SDS011;6914;53.552;9.908;2023-03-14T06:32:34;11.80;;;5.20;;
13683;SDS011;6914;53.552;9.908;2023-03-14T06:35:02;11.80;;;5.97;;
13683;SDS011;6914;53.552;9.908;2023-03-14T06:37:30;8.30;;;5.10;;
13683;SDS011;6914;53.552;9.908;2023-03-14T06:39:57;12.17;;;4.97;;
13683;SDS011;6914;53.552;9.908;2023-03-14T06:42:24;8.33;;;5.53;;
13683;SDS011;6914;53.552;9.908;2023-03-14T06:44:50;7.90;;;4.43;;
13683;SDS011;6914;53.552;9.908;2023-03-14T06:47:17;9.57;;;5.83;;
13683;SDS011;6914;53.552;9.908;2023-03-14T06:49:47;8.00;;;4.90;;
13683;SDS011;6914;53.552;9.908;2023-03-14T06:52:16;5.73;;;4.67;;
13683;SDS011;6914;53.552;9.908;2023-03-14T06:54:45;4.93;;;4.53;;
13683;SDS011;6914;53.552;9.908;2023-03-14T06:57:12;9.93;;;4.67;;
13683;SDS011;6914;53.552;9.908;2023-03-14T06:59:39;8.87;;;4.37;;
13683;SDS011;6914;53.552;9.908;2023-03-14T07:02:07;8.20;;;4.07;;
13683;SDS011;6914;53.552;9.908;2023-03-14T07:04:36;9.87;;;4.10;;
13683;SDS011;6914;53.552;9.908;2023-03-14T07:07:03;12.17;;;4.17;;
13683;SDS011;6914;53.552;9.908;2023-03-14T07:09:32;5.77;;;3.03;;
13683;SDS011;6914;53.552;9.908;2023-03-14T07:11:59;7.07;;;2.73;;
13683;SDS011;6914;53.552;9.908;2023-03-14T07:14:26;6.20;;;3.10;;
13683;SDS011;6914;53.552;9.908;2023-03-14T07:16:52;4.47;;;3.03;;
13683;SDS011;6914;53.552;9.908;2023-03-14T07:19:21;5.40;;;2.40;;
13683;SDS011;6914;53.552;9.908;2023-03-14T07:21:47;4.27;;;1.83;;
13683;SDS011;6914;53.552;9.908;2023-03-14T07:24:14;8.63;;;2.07;;
13683;SDS011;6914;53.552;9.908;2023-03-14T07:26:44;6.97;;;2.47;;
13683;SDS011;6914;53.552;9.908;2023-03-14T07:29:11;3.90;;;2.40;;
13683;SDS011;6914;53.552;9.908;2023-03-14T07:31:38;3.77;;;2.10;;
13683;SDS011;6914;53.552;9.908;2023-03-14T07:34:05;4.50;;;2.40;;
13683;SDS011;6914;53.552;9.908;2023-03-14T07:36:31;7.80;;;3.17;;
13683;SDS011;6914;53.552;9.908;2023-03-14T07:38:58;7.90;;;2.73;;
13683;SDS011;6914;53.552;9.908;2023-03-14T07:41:25;13.53;;;3.23;;
13683;SDS011;6914;53.552;9.908;2023-03-14T07:43:53;6.20;;;2.53;;
13683;SDS011;6914;53.552;9.908;2023-03-14T07:46:20;3.57;;;2.50;;
13683;SDS011;6914;53.552;9.908;2023-03-14T07:48:47;6.23;;;3.10;;
13683;SDS011;6914;53.552;9.908;2023-03-14T07:51:14;6.67;;;2.10;;
13683;SDS011;6914;53.552;9.908;2023-03-14T07:53:41;5.87;;;3.10;;
13683;SDS011;6914;53.552;9.908;2023-03-14T07:56:09;5.83;;;2.17;;
13683;SDS011;6914;53.552;9.908;2023-03-14T07:58:36;6.73;;;1.97;;
13683;SDS011;6914;53.552;9.908;2023-03-14T08:01:04;10.10;;;1.70;;
13683;SDS011;6914;53.552;9.908;2023-03-14T08:03:31;2.83;;;1.77;;
13683;SDS011;6914;53.552;9.908;2023-03-14T08:05:58;6.60;;;1.70;;
13683;SDS011;6914;53.552;9.908;2023-03-14T08:08:25;4.90;;;2.00;;
13683;SDS011;6914;53.552;9.908;2023-03-14T08:10:52;2.10;;;1.80;;
13683;SDS011;6914;53.552;9.908;2023-03-14T08:13:19;5.47;;;1.60;;
13683;SDS011;6914;53.552;9.908;2023-03-14T08:15:50;3.30;;;1.90;;
13683;SDS011;6914;53.552;9.908;2023-03-14T08:18:19;3.17;;;1.70;;
13683;SDS011;6914;53.552;9.908;2023-03-14T08:20:48;3.73;;;1.77;;
13683;SDS011;6914;53.552;9.908;2023-03-14T08:23:15;2.63;;;2.13;;
13683;SDS011;6914;53.552;9.908;2023-03-14T08:25:42;4.07;;;2.30;;
13683;SDS011;6914;53.552;9.908;2023-03-14T08:28:09;5.23;;;2.30;;
13683;SDS011;6914;53.552;9.908;2023-03-14T08:30:36;3.07;;;2.90;;
13683;SDS011;6914;53.552;9.908;2023-03-14T08:33:03;9.10;;;2.73;;
13683;SDS011;6914;53.552;9.908;2023-03-14T08:35:31;3.63;;;2.63;;
13683;SDS011;6914;53.552;9.908;2023-03-14T08:37:58;6.23;;;2.80;;
13683;SDS011;6914;53.552;9.908;2023-03-14T08:40:25;5.93;;;2.50;;
13683;SDS011;6914;53.552;9.908;2023-03-14T08:42:51;5.43;;;2.90;;
13683;SDS011;6914;53.552;9.908;2023-03-14T08:45:18;2.47;;;2.27;;
13683;SDS011;6914;53.552;9.908;2023-03-14T08:47:50;2.70;;;2.50;;
13683;SDS011;6914;53.552;9.908;2023-03-14T08:50:17;8.10;;;3.37;;
13683;SDS011;6914;53.552;9.908;2023-03-14T08:52:45;10.57;;;3.00;;
13683;SDS011;6914;53.552;9.908;2023-03-14T08:55:12;8.47;;;2.90;;
13683;SDS011;6914;53.552;9.908;2023-03-14T08:57:39;8.33;;;3.40;;
13683;SDS011;6914;53.552;9.908;2023-03-14T09:00:07;9.23;;;3.10;;
13683;SDS011;6914;53.552;9.908;2023-03-14T09:02:39;8.87;;;3.50;;
13683;SDS011;6914;53.552;9.908;2023-03-14T09:05:07;11.77;;;3.70;;
13683;SDS011;6914;53.552;9.908;2023-03-14T09:07:35;7.83;;;4.00;;
13683;SDS011;6914;53.552;9.908;2023-03-14T09:10:04;6.67;;;3.93;;
13683;SDS011;6914;53.552;9.908;2023-03-14T09:12:31;5.93;;;4.10;;
13683;SDS011;6914;53.552;9.908;2023-03-14T09:14:58;8.83;;;4.07;;
13683;SDS011;6914;53.552;9.908;2023-03-14T09:17:25;15.47;;;4.67;;
13683;SDS011;6914;53.552;9.908;2023-03-14T09:19:52;7.97;;;4.47;;
13683;SDS011;6914;53.552;9.908;2023-03-14T09:22:19;14.30;;;3.70;;
13683;SDS011;6914;53.552;9.908;2023-03-14T09:24:49;9.40;;;4.07;;
13683;SDS011;6914;53.552;9.908;2023-03-14T09:27:17;12.43;;;4.70;;
13683;SDS011;6914;53.552;9.908;2023-03-14T09:29:45;7.70;;;4.47;;
13683;SDS011;6914;53.552;9.908;2023-03-14T09:32:11;6.30;;;4.53;;
13683;SDS011;6914;53.552;9.908;2023-03-14T09:34:39;11.00;;;4.30;;
13683;SDS011;6914;53.552;9.908;2023-03-14T09:37:06;7.27;;;4.50;;
13683;SDS011;6914;53.552;9.908;2023-03-14T09:39:33;7.07;;;4.47;;
13683;SDS011;6914;53.552;9.908;2023-03-14T09:42:01;12.40;;;4.50;;
13683;SDS011;6914;53.552;9.908;2023-03-14T09:44:31;6.40;;;4.47;;
13683;SDS011;6914;53.552;9.908;2023-03-14T09:47:01;7.90;;;4.60;;
13683;SDS011;6914;53.552;9.908;2023-03-14T09:49:32;13.70;;;4.90;;
13683;SDS011;6914;53.552;9.908;2023-03-14T09:52:04;4.47;;;2.10;;
13683;SDS011;6914;53.552;9.908;2023-03-14T09:54:38;8.30;;;0.97;;
13683;SDS011;6914;53.552;9.908;2023-03-14T09:57:10;0.70;;;0.70;;
13683;SDS011;6914;53.552;9.908;2023-03-14T09:59:40;2.00;;;1.00;;
13683;SDS011;6914;53.552;9.908;2023-03-14T10:02:14;1.30;;;1.20;;
13683;SDS011;6914;53.552;9.908;2023-03-14T10:04:45;3.77;;;1.20;;
13683;SDS011;6914;53.552;9.908;2023-03-14T10:07:13;3.53;;;1.40;;
13683;SDS011;6914;53.552;9.908;2023-03-14T10:09:44;7.20;;;1.23;;
13683;SDS011;6914;53.552;9.908;2023-03-14T10:12:13;3.13;;;1.63;;
13683;SDS011;6914;53.552;9.908;2023-03-14T10:14:46;2.13;;;1.30;;
13683;SDS011;6914;53.552;9.908;2023-03-14T10:17:15;6.30;;;1.20;;
13683;SDS011;6914;53.552;9.908;2023-03-14T10:19:50;16.53;;;1.43;;
13683;SDS011;6914;53.552;9.908;2023-03-14T10:22:19;4.23;;;1.07;;
13683;SDS011;6914;53.552;9.908;2023-03-14T10:24:49;8.23;;;1.60;;
13683;SDS011;6914;53.552;9.908;2023-03-14T10:27:20;2.40;;;0.90;;
13683;SDS011;6914;53.552;9.908;2023-03-14T10:29:55;1.20;;;0.80;;
13683;SDS011;6914;53.552;9.908;2023-03-14T10:32:28;5.70;;;1.20;;
13683;SDS011;6914;53.552;9.908;2023-03-14T10:35:07;3.37;;;1.40;;
13683;SDS011;6914;53.552;9.908;2023-03-14T10:37:47;0.93;;;0.83;;
13683;SDS011;6914;53.552;9.908;2023-03-14T10:40:20;1.90;;;0.80;;
13683;SDS011;6914;53.552;9.908;2023-03-14T10:42:54;1.23;;;0.77;;
13683;SDS011;6914;53.552;9.908;2023-03-14T10:45:35;0.70;;;0.60;;
13683;SDS011;6914;53.552;9.908;2023-03-14T10:48:17;0.80;;;0.60;;
13683;SDS011;6914;53.552;9.908;2023-03-14T10:50:53;0.97;;;0.97;;
13683;SDS011;6914;53.552;9.908;2023-03-14T10:53:22;1.07;;;0.60;;
13683;SDS011;6914;53.552;9.908;2023-03-14T10:55:52;0.73;;;0.63;;
13683;SDS011;6914;53.552;9.908;2023-03-14T10:58:22;1.10;;;0.80;;
13683;SDS011;6914;53.552;9.908;2023-03-14T11:00:56;1.67;;;0.80;;
13683;SDS011;6914;53.552;9.908;2023-03-14T11:03:29;0.60;;;0.60;;
13683;SDS011;6914;53.552;9.908;2023-03-14T11:05:59;0.83;;;0.50;;
13683;SDS011;6914;53.552;9.908;2023-03-14T11:08:33;2.93;;;0.60;;
13683;SDS011;6914;53.552;9.908;2023-03-14T11:11:11;0.77;;;0.67;;
13683;SDS011;6914;53.552;9.908;2023-03-14T11:13:43;0.90;;;0.67;;
13683;SDS011;6914;53.552;9.908;2023-03-14T11:16:21;0.60;;;0.60;;
13683;SDS011;6914;53.552;9.908;2023-03-14T11:19:15;2.03;;;0.90;;
13683;SDS011;6914;53.552;9.908;2023-03-14T11:21:59;4.90;;;1.00;;
13683;SDS011;6914;53.552;9.908;2023-03-14T11:24:38;0.80;;;0.80;;
13683;SDS011;6914;53.552;9.908;2023-03-14T11:27:16;5.13;;;0.87;;
13683;SDS011;6914;53.552;9.908;2023-03-14T11:29:47;2.67;;;1.13;;
13683;SDS011;6914;53.552;9.908;2023-03-14T11:32:30;3.30;;;0.70;;
13683;SDS011;6914;53.552;9.908;2023-03-14T11:35:12;4.43;;;1.07;;
13683;SDS011;6914;53.552;9.908;2023-03-14T11:37:46;6.60;;;1.00;;
13683;SDS011;6914;53.552;9.908;2023-03-14T11:40:17;2.37;;;1.13;;
13683;SDS011;6914;53.552;9.908;2023-03-14T11:42:48;1.70;;;0.80;;
13683;SDS011;6914;53.552;9.908;2023-03-14T11:45:22;6.07;;;1.30;;
13683;SDS011;6914;53.552;9.908;2023-03-14T11:48:01;4.20;;;1.13;;
13683;SDS011;6914;53.552;9.908;2023-03-14T11:50:43;2.30;;;0.90;;
13683;SDS011;6914;53.552;9.908;2023-03-14T11:53:13;6.70;;;1.67;;
13683;SDS011;6914;53.552;9.908;2023-03-14T11:55:44;3.63;;;0.90;;
13683;SDS011;6914;53.552;9.908;2023-03-14T11:58:13;11.73;;;0.90;;
13683;SDS011;6914;53.552;9.908;2023-03-14T12:00:43;0.80;;;0.80;;
13683;SDS011;6914;53.552;9.908;2023-03-14T12:03:14;3.33;;;1.20;;
13683;SDS011;6914;53.552;9.908;2023-03-14T12:05:58;5.13;;;1.00;;
13683;SDS011;6914;53.552;9.908;2023-03-14T12:08:38;7.77;;;1.60;;
13683;SDS011;6914;53.552;9.908;2023-03-14T12:11:10;8.83;;;2.03;;
13683;SDS011;6914;53.552;9.908;2023-03-14T12:13:42;7.20;;;1.70;;
13683;SDS011;6914;53.552;9.908;2023-03-14T12:16:27;10.97;;;2.17;;
13683;SDS011;6914;53.552;9.908;2023-03-14T12:19:13;8.43;;;1.27;;
13683;SDS011;6914;53.552;9.908;2023-03-14T12:21:53;13.13;;;1.40;;
13683;SDS011;6914;53.552;9.908;2023-03-14T12:24:24;8.73;;;1.70;;
13683;SDS011;6914;53.552;9.908;2023-03-14T12:26:54;19.77;;;1.87;;
13683;SDS011;6914;53.552;9.908;2023-03-14T12:29:23;5.60;;;2.03;;
13683;SDS011;6914;53.552;9.908;2023-03-14T12:32:08;7.90;;;1.60;;
13683;SDS011;6914;53.552;9.908;2023-03-14T12:34:49;4.43;;;1.50;;
13683;SDS011;6914;53.552;9.908;2023-03-14T12:37:18;6.40;;;1.70;;
13683;SDS011;6914;53.552;9.908;2023-03-14T12:39:59;7.70;;;2.57;;
13683;SDS011;6914;53.552;9.908;2023-03-14T12:42:38;5.97;;;1.70;;
13683;SDS011;6914;53.552;9.908;2023-03-14T12:45:15;7.50;;;2.00;;
13683;SDS011;6914;53.552;9.908;2023-03-14T12:47:51;20.03;;;1.63;;
13683;SDS011;6914;53.552;9.908;2023-03-14T12:50:36;4.30;;;2.53;;
13683;SDS011;6914;53.552;9.908;2023-03-14T12:53:12;9.33;;;2.33;;
13683;SDS011;6914;53.552;9.908;2023-03-14T12:56:06;8.80;;;1.43;;
13683;SDS011;6914;53.552;9.908;2023-03-14T12:58:39;6.40;;;1.80;;
13683;SDS011;6914;53.552;9.908;2023-03-14T13:01:15;8.50;;;2.00;;
13683;SDS011;6914;53.552;9.908;2023-03-14T13:03:45;6.47;;;1.90;;
13683;SDS011;6914;53.552;9.908;2023-03-14T13:12:22;7.87;;;2.30;;
13683;SDS011;6914;53.552;9.908;2023-03-14T13:14:57;18.60;;;3.20;;
13683;SDS011;6914;53.552;9.908;2023-03-14T13:17:30;18.87;;;2.87;;
13683;SDS011;6914;53.552;9.908;2023-03-14T13:20:00;13.67;;;2.50;;
13683;SDS011;6914;53.552;9.908;2023-03-14T13:22:32;11.57;;;2.50;;
13683;SDS011;6914;53.552;9.908;2023-03-14T13:25:02;12.13;;;2.20;;
13683;SDS011;6914;53.552;9.908;2023-03-14T13:27:31;10.17;;;2.53;;
13683;SDS011;6914;53.552;9.908;2023-03-14T13:30:05;7.40;;;1.47;;
13683;SDS011;6914;53.552;9.908;2023-03-14T13:32:41;11.13;;;2.17;;
13683;SDS011;6914;53.552;9.908;2023-03-14T13:35:17;6.50;;;1.93;;
13683;SDS011;6914;53.552;9.908;2023-03-14T13:37:47;13.30;;;1.87;;
13683;SDS011;6914;53.552;9.908;2023-03-14T13:40:19;5.30;;;1.70;;
13683;SDS011;6914;53.552;9.908;2023-03-14T13:42:50;7.80;;;1.60;;
13683;SDS011;6914;53.552;9.908;2023-03-14T13:45:28;15.80;;;1.53;;
13683;SDS011;6914;53.552;9.908;2023-03-14T13:47:55;10.70;;;1.53;;
13683;SDS011;6914;53.552;9.908;2023-03-14T13:50:21;21.27;;;1.97;;
13683;SDS011;6914;53.552;9.908;2023-03-14T13:52:55;12.60;;;1.80;;
13683;SDS011;6914;53.552;9.908;2023-03-14T13:55:23;5.53;;;1.57;;
13683;SDS011;6914;53.552;9.908;2023-03-14T13:57:52;11.30;;;1.77;;
13683;SDS011;6914;53.552;9.908;2023-03-14T14:00:21;15.30;;;1.90;;
13683;SDS011;6914;53.552;9.908;2023-03-14T14:02:53;2.13;;;1.20;;
13683;SDS011;6914;53.552;9.908;2023-03-14T14:05:21;18.70;;;2.03;;
13683;SDS011;6914;53.552;9.908;2023-03-14T14:07:48;15.77;;;2.00;;
13683;SDS011;6914;53.552;9.908;2023-03-14T14:10:18;15.13;;;2.00;;
13683;SDS011;6914;53.552;9.908;2023-03-14T14:12:47;12.53;;;2.17;;
13683;SDS011;6914;53.552;9.908;2023-03-14T14:15:18;8.50;;;1.40;;
13683;SDS011;6914;53.552;9.908;2023-03-14T14:17:48;7.53;;;1.93;;
13683;SDS011;6914;53.552;9.908;2023-03-14T14:20:20;9.10;;;2.03;;
13683;SDS011;6914;53.552;9.908;2023-03-14T14:22:49;11.13;;;2.00;;
13683;SDS011;6914;53.552;9.908;2023-03-14T14:25:18;7.80;;;1.93;;
13683;SDS011;6914;53.552;9.908;2023-03-14T14:27:47;10.97;;;1.67;;
13683;SDS011;6914;53.552;9.908;2023-03-14T14:30:25;7.93;;;1.50;;
13683;SDS011;6914;53.552;9.908;2023-03-14T14:33:10;11.00;;;1.60;;
13683;SDS011;6914;53.552;9.908;2023-03-14T14:35:42;12.77;;;1.53;;
13683;SDS011;6914;53.552;9.908;2023-03-14T14:38:17;4.10;;;0.93;;
13683;SDS011;6914;53.552;9.908;2023-03-14T14:40:49;3.33;;;1.60;;
13683;SDS011;6914;53.552;9.908;2023-03-14T14:43:18;8.80;;;1.07;;
13683;SDS011;6914;53.552;9.908;2023-03-14T14:45:49;6.03;;;1.30;;
13683;SDS011;6914;53.552;9.908;2023-03-14T14:48:19;6.87;;;1.40;;
13683;SDS011;6914;53.552;9.908;2023-03-14T14:50:54;8.30;;;1.70;;
13683;SDS011;6914;53.552;9.908;2023-03-14T14:53:27;4.23;;;1.20;;
13683;SDS011;6914;53.552;9.908;2023-03-14T14:56:00;5.33;;;1.60;;
13683;SDS011;6914;53.552;9.908;2023-03-14T14:58:34;11.33;;;1.17;;
13683;SDS011;6914;53.552;9.908;2023-03-14T15:01:03;9.57;;;3.37;;
13683;SDS011;6914;53.552;9.908;2023-03-14T15:03:34;12.20;;;1.50;;
13683;SDS011;6914;53.552;9.908;2023-03-14T15:06:01;5.60;;;1.27;;
13683;SDS011;6914;53.552;9.908;2023-03-14T15:08:29;17.80;;;1.93;;
13683;SDS011;6914;53.552;9.908;2023-03-14T15:10:56;9.87;;;1.70;;
13683;SDS011;6914;53.552;9.908;2023-03-14T15:13:25;2.30;;;1.33;;
13683;SDS011;6914;53.552;9.908;2023-03-14T15:15:55;9.83;;;1.90;;
13683;SDS011;6914;53.552;9.908;2023-03-14T15:18:23;8.20;;;1.90;;
13683;SDS011;6914;53.552;9.908;2023-03-14T15:20:54;5.27;;;1.27;;
13683;SDS011;6914;53.552;9.908;2023-03-14T15:23:21;13.47;;;1.97;;
13683;SDS011;6914;53.552;9.908;2023-03-14T15:25:49;5.37;;;1.40;;